sensor_id;sensor_type;location;lat;lon;timestamp;P1;durP1;ratioP1;P2;durP2;ratioP2
37791;SDS011;29527;55.766;37.570;2023-05-29T00:01:07;8.13;;;2.88;;
37791;SDS011;29527;55.766;37.570;2023-05-29T00:03:34;5.57;;;2.70;;
37791;SDS011;29527;55.766;37.570;2023-05-29T00:06:03;6.70;;;2.45;;
37791;SDS011;29527;55.766;37.570;2023-05-29T00:08:31;5.22;;;2.50;;
37791;SDS011;29527;55.766;37.570;2023-05-29T00:10:57;7.00;;;3.05;;
37791;SDS011;29527;55.766;37.570;2023-05-29T00:13:23;6.07;;;2.78;;
37791;SDS011;29527;55.766;37.570;2023-05-29T00:15:48;6.85;;;2.75;;
37791;SDS011;29527;55.766;37.570;2023-05-29T00:18:13;7.93;;;2.60;;
37791;SDS011;29527;55.766;37.570;2023-05-29T00:20:39;6.07;;;2.40;;
37791;SDS011;29527;55.766;37.570;2023-05-29T00:23:05;5.40;;;2.67;;
37791;SDS011;29527;55.766;37.570;2023-05-29T00:25:32;7.47;;;2.50;;
37791;SDS011;29527;55.766;37.570;2023-05-29T00:27:57;5.70;;;2.88;;
37791;SDS011;29527;55.766;37.570;2023-05-29T00:30:23;4.97;;;2.40;;
37791;SDS011;29527;55.766;37.570;2023-05-29T00:32:49;3.42;;;2.47;;
37791;SDS011;29527;55.766;37.570;2023-05-29T00:35:17;8.80;;;2.70;;
37791;SDS011;29527;55.766;37.570;2023-05-29T00:37:43;4.75;;;2.50;;
37791;SDS011;29527;55.766;37.570;2023-05-29T00:40:08;6.47;;;2.55;;
37791;SDS011;29527;55.766;37.570;2023-05-29T00:42:35;5.88;;;2.40;;
37791;SDS011;29527;55.766;37.570;2023-05-29T00:45:01;4.80;;;2.90;;
37791;SDS011;29527;55.766;37.570;2023-05-29T00:47:31;5.78;;;2.40;;
37791;SDS011;29527;55.766;37.570;2023-05-29T00:49:56;7.30;;;2.63;;
37791;SDS011;29527;55.766;37.570;2023-05-29T00:52:23;10.85;;;2.88;;
37791;SDS011;29527;55.766;37.570;2023-05-29T00:54:50;7.35;;;2.67;;
37791;SDS011;29527;55.766;37.570;2023-05-29T00:57:17;5.88;;;2.90;;
37791;SDS011;29527;55.766;37.570;2023-05-29T00:59:43;8.15;;;2.88;;
37791;SDS011;29527;55.766;37.570;2023-05-29T01:02:10;4.55;;;2.53;;
37791;SDS011;29527;55.766;37.570;2023-05-29T01:04:37;3.22;;;2.13;;
37791;SDS011;29527;55.766;37.570;2023-05-29T01:07:03;5.10;;;2.75;;
37791;SDS011;29527;55.766;37.570;2023-05-29T01:09:29;6.15;;;2.60;;
37791;SDS011;29527;55.766;37.570;2023-05-29T01:17:51;4.03;;;2.30;;
37791;SDS011;29527;55.766;37.570;2023-05-29T01:28:13;4.28;;;2.83;;
37791;SDS011;29527;55.766;37.570;2023-05-29T01:30:44;4.75;;;2.47;;
37791;SDS011;29527;55.766;37.570;2023-05-29T01:33:10;6.70;;;2.40;;
37791;SDS011;29527;55.766;37.570;2023-05-29T01:35:36;4.50;;;2.30;;
37791;SDS011;29527;55.766;37.570;2023-05-29T01:38:01;5.05;;;2.50;;
37791;SDS011;29527;55.766;37.570;2023-05-29T01:40:27;7.25;;;2.70;;
37791;SDS011;29527;55.766;37.570;2023-05-29T01:42:52;6.03;;;2.70;;
37791;SDS011;29527;55.766;37.570;2023-05-29T01:45:18;8.20;;;2.90;;
37791;SDS011;29527;55.766;37.570;2023-05-29T01:47:44;4.20;;;2.50;;
37791;SDS011;29527;55.766;37.570;2023-05-29T01:50:09;5.30;;;2.50;;
37791;SDS011;29527;55.766;37.570;2023-05-29T01:52:37;3.25;;;2.25;;
37791;SDS011;29527;55.766;37.570;2023-05-29T01:55:03;4.15;;;2.33;;
37791;SDS011;29527;55.766;37.570;2023-05-29T01:57:29;7.63;;;2.70;;
37791;SDS011;29527;55.766;37.570;2023-05-29T01:59:55;6.53;;;2.65;;
37791;SDS011;29527;55.766;37.570;2023-05-29T02:02:21;8.93;;;2.38;;
37791;SDS011;29527;55.766;37.570;2023-05-29T02:04:48;5.05;;;2.42;;
37791;SDS011;29527;55.766;37.570;2023-05-29T02:07:13;7.40;;;2.75;;
37791;SDS011;29527;55.766;37.570;2023-05-29T02:09:40;4.15;;;2.45;;
37791;SDS011;29527;55.766;37.570;2023-05-29T02:12:06;4.85;;;2.17;;
37791;SDS011;29527;55.766;37.570;2023-05-29T02:14:33;2.88;;;2.20;;
37791;SDS011;29527;55.766;37.570;2023-05-29T02:16:59;8.25;;;2.30;;
37791;SDS011;29527;55.766;37.570;2023-05-29T02:19:27;3.63;;;2.35;;
37791;SDS011;29527;55.766;37.570;2023-05-29T02:21:53;6.60;;;2.40;;
37791;SDS011;29527;55.766;37.570;2023-05-29T02:24:18;6.97;;;2.90;;
37791;SDS011;29527;55.766;37.570;2023-05-29T02:26:45;8.88;;;2.33;;
37791;SDS011;29527;55.766;37.570;2023-05-29T02:29:13;4.75;;;2.45;;
37791;SDS011;29527;55.766;37.570;2023-05-29T02:31:38;6.65;;;2.42;;
37791;SDS011;29527;55.766;37.570;2023-05-29T02:34:04;7.03;;;2.45;;
37791;SDS011;29527;55.766;37.570;2023-05-29T02:36:29;6.43;;;2.55;;
37791;SDS011;29527;55.766;37.570;2023-05-29T02:38:55;6.60;;;2.15;;
37791;SDS011;29527;55.766;37.570;2023-05-29T02:41:20;9.75;;;2.63;;
37791;SDS011;29527;55.766;37.570;2023-05-29T02:43:46;6.45;;;2.58;;
37791;SDS011;29527;55.766;37.570;2023-05-29T02:46:11;9.30;;;2.60;;
37791;SDS011;29527;55.766;37.570;2023-05-29T02:48:37;6.18;;;2.65;;
37791;SDS011;29527;55.766;37.570;2023-05-29T02:51:02;4.57;;;2.28;;
37791;SDS011;29527;55.766;37.570;2023-05-29T02:53:28;5.78;;;2.78;;
37791;SDS011;29527;55.766;37.570;2023-05-29T02:55:53;5.70;;;2.38;;
37791;SDS011;29527;55.766;37.570;2023-05-29T02:58:19;4.80;;;2.35;;
37791;SDS011;29527;55.766;37.570;2023-05-29T03:00:46;5.40;;;2.40;;
37791;SDS011;29527;55.766;37.570;2023-05-29T03:03:11;7.10;;;2.30;;
37791;SDS011;29527;55.766;37.570;2023-05-29T03:05:37;6.05;;;2.30;;
37791;SDS011;29527;55.766;37.570;2023-05-29T03:08:02;4.25;;;2.50;;
37791;SDS011;29527;55.766;37.570;2023-05-29T03:10:28;7.40;;;2.55;;
37791;SDS011;29527;55.766;37.570;2023-05-29T03:12:54;7.05;;;2.40;;
37791;SDS011;29527;55.766;37.570;2023-05-29T03:15:20;4.97;;;2.65;;
37791;SDS011;29527;55.766;37.570;2023-05-29T03:17:46;4.22;;;2.13;;
37791;SDS011;29527;55.766;37.570;2023-05-29T03:20:12;5.40;;;2.53;;
37791;SDS011;29527;55.766;37.570;2023-05-29T03:22:38;11.80;;;2.45;;
37791;SDS011;29527;55.766;37.570;2023-05-29T03:25:04;6.25;;;2.30;;
37791;SDS011;29527;55.766;37.570;2023-05-29T03:27:30;8.77;;;2.60;;
37791;SDS011;29527;55.766;37.570;2023-05-29T03:29:56;7.28;;;2.92;;
37791;SDS011;29527;55.766;37.570;2023-05-29T03:32:23;8.77;;;2.63;;
37791;SDS011;29527;55.766;37.570;2023-05-29T03:34:48;7.15;;;2.20;;
37791;SDS011;29527;55.766;37.570;2023-05-29T03:37:14;6.25;;;2.53;;
37791;SDS011;29527;55.766;37.570;2023-05-29T03:39:39;5.53;;;3.00;;
37791;SDS011;29527;55.766;37.570;2023-05-29T03:42:05;6.70;;;3.22;;
37791;SDS011;29527;55.766;37.570;2023-05-29T03:44:31;6.57;;;2.45;;
37791;SDS011;29527;55.766;37.570;2023-05-29T03:46:56;6.63;;;2.67;;
37791;SDS011;29527;55.766;37.570;2023-05-29T03:49:21;5.07;;;2.53;;
37791;SDS011;29527;55.766;37.570;2023-05-29T03:51:47;6.90;;;2.47;;
37791;SDS011;29527;55.766;37.570;2023-05-29T03:54:13;7.85;;;2.83;;
37791;SDS011;29527;55.766;37.570;2023-05-29T03:56:38;8.05;;;2.50;;
37791;SDS011;29527;55.766;37.570;2023-05-29T03:59:04;5.82;;;2.65;;
37791;SDS011;29527;55.766;37.570;2023-05-29T04:01:29;5.82;;;2.50;;
37791;SDS011;29527;55.766;37.570;2023-05-29T04:03:55;8.27;;;2.58;;
37791;SDS011;29527;55.766;37.570;2023-05-29T04:06:20;5.30;;;2.70;;
37791;SDS011;29527;55.766;37.570;2023-05-29T04:08:46;7.85;;;2.75;;
37791;SDS011;29527;55.766;37.570;2023-05-29T04:11:12;9.85;;;2.83;;
37791;SDS011;29527;55.766;37.570;2023-05-29T04:13:39;8.65;;;2.50;;
37791;SDS011;29527;55.766;37.570;2023-05-29T04:16:05;4.22;;;2.55;;
37791;SDS011;29527;55.766;37.570;2023-05-29T04:18:31;10.32;;;2.85;;
37791;SDS011;29527;55.766;37.570;2023-05-29T04:20:56;7.25;;;2.90;;
37791;SDS011;29527;55.766;37.570;2023-05-29T04:23:22;11.82;;;3.00;;
37791;SDS011;29527;55.766;37.570;2023-05-29T04:25:47;8.05;;;2.55;;
37791;SDS011;29527;55.766;37.570;2023-05-29T04:28:16;6.18;;;2.15;;
37791;SDS011;29527;55.766;37.570;2023-05-29T04:30:42;5.25;;;2.58;;
37791;SDS011;29527;55.766;37.570;2023-05-29T04:33:08;7.20;;;2.80;;
37791;SDS011;29527;55.766;37.570;2023-05-29T04:35:38;10.18;;;2.90;;
37791;SDS011;29527;55.766;37.570;2023-05-29T04:38:03;8.48;;;2.90;;
37791;SDS011;29527;55.766;37.570;2023-05-29T04:40:30;6.93;;;2.55;;
37791;SDS011;29527;55.766;37.570;2023-05-29T04:42:56;10.00;;;2.38;;
37791;SDS011;29527;55.766;37.570;2023-05-29T04:45:25;6.13;;;2.85;;
37791;SDS011;29527;55.766;37.570;2023-05-29T04:47:51;5.78;;;2.67;;
37791;SDS011;29527;55.766;37.570;2023-05-29T04:50:18;5.55;;;2.80;;
37791;SDS011;29527;55.766;37.570;2023-05-29T04:52:44;8.38;;;3.00;;
37791;SDS011;29527;55.766;37.570;2023-05-29T04:55:10;9.88;;;2.85;;
37791;SDS011;29527;55.766;37.570;2023-05-29T04:57:36;6.90;;;2.75;;
37791;SDS011;29527;55.766;37.570;2023-05-29T05:00:02;6.88;;;3.25;;
37791;SDS011;29527;55.766;37.570;2023-05-29T05:02:32;4.30;;;2.65;;
37791;SDS011;29527;55.766;37.570;2023-05-29T05:04:57;6.50;;;2.55;;
37791;SDS011;29527;55.766;37.570;2023-05-29T05:07:23;6.13;;;2.70;;
37791;SDS011;29527;55.766;37.570;2023-05-29T05:09:49;6.30;;;2.95;;
37791;SDS011;29527;55.766;37.570;2023-05-29T05:12:15;5.95;;;2.65;;
37791;SDS011;29527;55.766;37.570;2023-05-29T05:14:41;7.70;;;3.33;;
37791;SDS011;29527;55.766;37.570;2023-05-29T05:17:06;7.93;;;2.75;;
37791;SDS011;29527;55.766;37.570;2023-05-29T05:19:32;7.35;;;3.03;;
37791;SDS011;29527;55.766;37.570;2023-05-29T05:21:57;9.65;;;3.08;;
37791;SDS011;29527;55.766;37.570;2023-05-29T05:24:23;6.53;;;2.53;;
37791;SDS011;29527;55.766;37.570;2023-05-29T05:26:48;8.25;;;2.80;;
37791;SDS011;29527;55.766;37.570;2023-05-29T05:29:14;5.78;;;2.80;;
37791;SDS011;29527;55.766;37.570;2023-05-29T05:31:40;8.75;;;2.65;;
37791;SDS011;29527;55.766;37.570;2023-05-29T05:34:05;12.25;;;3.10;;
37791;SDS011;29527;55.766;37.570;2023-05-29T05:36:31;9.07;;;2.60;;
37791;SDS011;29527;55.766;37.570;2023-05-29T05:38:57;7.15;;;3.03;;
37791;SDS011;29527;55.766;37.570;2023-05-29T05:41:23;7.72;;;3.03;;
37791;SDS011;29527;55.766;37.570;2023-05-29T05:43:49;7.63;;;2.95;;
37791;SDS011;29527;55.766;37.570;2023-05-29T05:46:15;7.05;;;2.80;;
37791;SDS011;29527;55.766;37.570;2023-05-29T05:48:42;7.10;;;2.65;;
37791;SDS011;29527;55.766;37.570;2023-05-29T05:51:07;5.18;;;2.22;;
37791;SDS011;29527;55.766;37.570;2023-05-29T05:53:33;3.67;;;2.05;;
37791;SDS011;29527;55.766;37.570;2023-05-29T05:55:58;1.60;;;1.50;;
37791;SDS011;29527;55.766;37.570;2023-05-29T05:58:24;3.42;;;1.60;;
37791;SDS011;29527;55.766;37.570;2023-05-29T06:00:50;2.25;;;1.80;;
37791;SDS011;29527;55.766;37.570;2023-05-29T06:03:17;2.70;;;1.65;;
37791;SDS011;29527;55.766;37.570;2023-05-29T06:05:43;2.67;;;1.70;;
37791;SDS011;29527;55.766;37.570;2023-05-29T06:08:08;5.25;;;1.77;;
37791;SDS011;29527;55.766;37.570;2023-05-29T06:10:34;2.97;;;1.75;;
37791;SDS011;29527;55.766;37.570;2023-05-29T06:13:00;5.07;;;1.67;;
37791;SDS011;29527;55.766;37.570;2023-05-29T06:15:26;2.95;;;1.60;;
37791;SDS011;29527;55.766;37.570;2023-05-29T06:17:51;4.15;;;1.77;;
37791;SDS011;29527;55.766;37.570;2023-05-29T06:20:17;5.05;;;1.80;;
37791;SDS011;29527;55.766;37.570;2023-05-29T06:22:43;5.55;;;2.13;;
37791;SDS011;29527;55.766;37.570;2023-05-29T06:25:08;3.88;;;1.70;;
37791;SDS011;29527;55.766;37.570;2023-05-29T06:27:35;2.40;;;1.70;;
37791;SDS011;29527;55.766;37.570;2023-05-29T06:30:00;5.63;;;1.50;;
37791;SDS011;29527;55.766;37.570;2023-05-29T06:32:26;3.60;;;1.48;;
37791;SDS011;29527;55.766;37.570;2023-05-29T06:34:53;3.70;;;1.98;;
37791;SDS011;29527;55.766;37.570;2023-05-29T06:37:19;1.80;;;1.27;;
37791;SDS011;29527;55.766;37.570;2023-05-29T06:39:45;2.47;;;1.38;;
37791;SDS011;29527;55.766;37.570;2023-05-29T06:42:10;2.63;;;1.45;;
37791;SDS011;29527;55.766;37.570;2023-05-29T06:44:36;1.45;;;1.38;;
37791;SDS011;29527;55.766;37.570;2023-05-29T06:47:01;2.85;;;1.38;;
37791;SDS011;29527;55.766;37.570;2023-05-29T06:49:27;1.65;;;1.50;;
37791;SDS011;29527;55.766;37.570;2023-05-29T06:51:52;1.40;;;1.27;;
37791;SDS011;29527;55.766;37.570;2023-05-29T06:54:18;1.80;;;1.55;;
37791;SDS011;29527;55.766;37.570;2023-05-29T06:56:43;1.70;;;1.40;;
37791;SDS011;29527;55.766;37.570;2023-05-29T06:59:09;1.50;;;1.40;;
37791;SDS011;29527;55.766;37.570;2023-05-29T07:01:34;1.75;;;1.45;;
37791;SDS011;29527;55.766;37.570;2023-05-29T07:04:00;2.08;;;1.90;;
37791;SDS011;29527;55.766;37.570;2023-05-29T07:06:26;1.80;;;1.65;;
37791;SDS011;29527;55.766;37.570;2023-05-29T07:08:51;5.07;;;1.95;;
37791;SDS011;29527;55.766;37.570;2023-05-29T07:11:17;3.45;;;2.10;;
37791;SDS011;29527;55.766;37.570;2023-05-29T07:13:42;2.53;;;2.33;;
37791;SDS011;29527;55.766;37.570;2023-05-29T07:16:08;2.95;;;2.00;;
37791;SDS011;29527;55.766;37.570;2023-05-29T07:18:34;2.38;;;2.17;;
37791;SDS011;29527;55.766;37.570;2023-05-29T07:20:59;4.65;;;2.30;;
37791;SDS011;29527;55.766;37.570;2023-05-29T07:23:25;2.40;;;2.20;;
37791;SDS011;29527;55.766;37.570;2023-05-29T07:25:51;2.13;;;1.90;;
37791;SDS011;29527;55.766;37.570;2023-05-29T07:28:16;3.92;;;2.78;;
37791;SDS011;29527;55.766;37.570;2023-05-29T07:30:42;4.70;;;2.92;;
37791;SDS011;29527;55.766;37.570;2023-05-29T07:33:07;2.50;;;2.30;;
37791;SDS011;29527;55.766;37.570;2023-05-29T07:35:33;4.68;;;2.90;;
37791;SDS011;29527;55.766;37.570;2023-05-29T07:37:59;3.15;;;2.95;;
37791;SDS011;29527;55.766;37.570;2023-05-29T07:40:25;4.82;;;2.85;;
37791;SDS011;29527;55.766;37.570;2023-05-29T07:42:51;6.50;;;3.47;;
37791;SDS011;29527;55.766;37.570;2023-05-29T07:45:17;3.58;;;3.28;;
37791;SDS011;29527;55.766;37.570;2023-05-29T07:47:42;2.95;;;2.70;;
37791;SDS011;29527;55.766;37.570;2023-05-29T07:50:08;5.07;;;2.75;;
37791;SDS011;29527;55.766;37.570;2023-05-29T07:52:34;3.58;;;2.10;;
37791;SDS011;29527;55.766;37.570;2023-05-29T07:55:00;2.50;;;2.30;;
37791;SDS011;29527;55.766;37.570;2023-05-29T07:57:30;4.68;;;2.30;;
37791;SDS011;29527;55.766;37.570;2023-05-29T07:59:56;3.50;;;2.65;;
37791;SDS011;29527;55.766;37.570;2023-05-29T08:02:21;4.82;;;2.55;;
37791;SDS011;29527;55.766;37.570;2023-05-29T08:04:47;2.10;;;2.00;;
37791;SDS011;29527;55.766;37.570;2023-05-29T08:07:12;2.00;;;1.90;;
37791;SDS011;29527;55.766;37.570;2023-05-29T08:09:38;5.22;;;1.60;;
37791;SDS011;29527;55.766;37.570;2023-05-29T08:12:04;1.90;;;1.80;;
37791;SDS011;29527;55.766;37.570;2023-05-29T08:14:30;1.88;;;1.70;;
37791;SDS011;29527;55.766;37.570;2023-05-29T08:16:56;4.35;;;1.20;;
37791;SDS011;29527;55.766;37.570;2023-05-29T08:19:22;2.38;;;1.25;;
37791;SDS011;29527;55.766;37.570;2023-05-29T08:21:48;0.85;;;0.85;;
37791;SDS011;29527;55.766;37.570;2023-05-29T08:24:14;3.83;;;1.10;;
37791;SDS011;29527;55.766;37.570;2023-05-29T08:26:39;5.40;;;1.13;;
37791;SDS011;29527;55.766;37.570;2023-05-29T08:29:05;1.98;;;1.30;;
37791;SDS011;29527;55.766;37.570;2023-05-29T08:31:30;2.05;;;0.98;;
37791;SDS011;29527;55.766;37.570;2023-05-29T08:33:56;2.28;;;1.30;;
37791;SDS011;29527;55.766;37.570;2023-05-29T08:36:22;2.90;;;1.00;;
37791;SDS011;29527;55.766;37.570;2023-05-29T08:38:48;3.13;;;0.82;;
37791;SDS011;29527;55.766;37.570;2023-05-29T08:41:19;3.53;;;1.17;;
37791;SDS011;29527;55.766;37.570;2023-05-29T08:43:49;4.00;;;1.27;;
37791;SDS011;29527;55.766;37.570;2023-05-29T08:46:15;2.75;;;0.90;;
37791;SDS011;29527;55.766;37.570;2023-05-29T08:48:43;1.20;;;1.02;;
37791;SDS011;29527;55.766;37.570;2023-05-29T08:51:13;2.83;;;0.98;;
37791;SDS011;29527;55.766;37.570;2023-05-29T08:53:39;2.00;;;0.90;;
37791;SDS011;29527;55.766;37.570;2023-05-29T08:56:05;1.50;;;1.15;;
37791;SDS011;29527;55.766;37.570;2023-05-29T08:58:31;4.97;;;1.20;;
37791;SDS011;29527;55.766;37.570;2023-05-29T09:00:58;3.25;;;1.40;;
37791;SDS011;29527;55.766;37.570;2023-05-29T09:03:24;2.97;;;1.25;;
37791;SDS011;29527;55.766;37.570;2023-05-29T09:05:50;2.50;;;1.35;;
37791;SDS011;29527;55.766;37.570;2023-05-29T09:08:16;2.38;;;0.90;;
37791;SDS011;29527;55.766;37.570;2023-05-29T09:10:42;2.47;;;0.90;;
37791;SDS011;29527;55.766;37.570;2023-05-29T09:13:08;1.35;;;1.20;;
37791;SDS011;29527;55.766;37.570;2023-05-29T09:15:35;3.33;;;1.10;;
37791;SDS011;29527;55.766;37.570;2023-05-29T09:18:00;1.83;;;1.30;;
37791;SDS011;29527;55.766;37.570;2023-05-29T09:20:26;5.00;;;1.40;;
37791;SDS011;29527;55.766;37.570;2023-05-29T09:25:23;2.03;;;1.02;;
37791;SDS011;29527;55.766;37.570;2023-05-29T09:27:55;2.05;;;1.00;;
37791;SDS011;29527;55.766;37.570;2023-05-29T09:33:08;4.20;;;1.25;;
37791;SDS011;29527;55.766;37.570;2023-05-29T09:38:01;7.03;;;1.60;;
37791;SDS011;29527;55.766;37.570;2023-05-29T09:40:35;3.97;;;1.08;;
37791;SDS011;29527;55.766;37.570;2023-05-29T09:43:11;3.15;;;1.10;;
37791;SDS011;29527;55.766;37.570;2023-05-29T09:45:39;2.30;;;1.27;;
37791;SDS011;29527;55.766;37.570;2023-05-29T09:48:08;4.07;;;1.60;;
37791;SDS011;29527;55.766;37.570;2023-05-29T09:50:37;8.30;;;1.50;;
37791;SDS011;29527;55.766;37.570;2023-05-29T09:53:15;3.33;;;1.20;;
37791;SDS011;29527;55.766;37.570;2023-05-29T09:55:48;2.85;;;1.35;;
37791;SDS011;29527;55.766;37.570;2023-05-29T09:58:15;2.65;;;1.05;;
37791;SDS011;29527;55.766;37.570;2023-05-29T10:00:43;1.50;;;1.10;;
37791;SDS011;29527;55.766;37.570;2023-05-29T10:03:09;3.42;;;1.20;;
37791;SDS011;29527;55.766;37.570;2023-05-29T10:05:37;2.28;;;1.33;;
37791;SDS011;29527;55.766;37.570;2023-05-29T10:08:03;5.45;;;1.70;;
37791;SDS011;29527;55.766;37.570;2023-05-29T10:10:32;3.30;;;1.40;;
37791;SDS011;29527;55.766;37.570;2023-05-29T10:13:00;2.80;;;1.30;;
37791;SDS011;29527;55.766;37.570;2023-05-29T10:15:28;5.10;;;1.40;;
37791;SDS011;29527;55.766;37.570;2023-05-29T10:18:02;2.38;;;1.23;;
37791;SDS011;29527;55.766;37.570;2023-05-29T10:20:30;5.93;;;1.40;;
37791;SDS011;29527;55.766;37.570;2023-05-29T10:22:59;4.00;;;1.30;;
37791;SDS011;29527;55.766;37.570;2023-05-29T10:25:27;6.72;;;1.05;;
37791;SDS011;29527;55.766;37.570;2023-05-29T10:27:55;3.75;;;1.50;;
37791;SDS011;29527;55.766;37.570;2023-05-29T10:33:30;3.28;;;1.60;;
37791;SDS011;29527;55.766;37.570;2023-05-29T10:36:19;6.13;;;1.30;;
37791;SDS011;29527;55.766;37.570;2023-05-29T10:38:49;5.53;;;1.15;;
37791;SDS011;29527;55.766;37.570;2023-05-29T10:43:54;5.68;;;1.50;;
37791;SDS011;29527;55.766;37.570;2023-05-29T10:46:20;3.78;;;1.30;;
37791;SDS011;29527;55.766;37.570;2023-05-29T10:48:49;2.20;;;1.25;;
37791;SDS011;29527;55.766;37.570;2023-05-29T10:51:25;2.97;;;1.13;;
37791;SDS011;29527;55.766;37.570;2023-05-29T10:53:56;3.20;;;1.23;;
37791;SDS011;29527;55.766;37.570;2023-05-29T10:56:22;2.35;;;1.25;;
37791;SDS011;29527;55.766;37.570;2023-05-29T10:58:51;6.88;;;1.65;;
37791;SDS011;29527;55.766;37.570;2023-05-29T11:01:20;3.78;;;1.50;;
37791;SDS011;29527;55.766;37.570;2023-05-29T11:03:47;2.67;;;1.92;;
37791;SDS011;29527;55.766;37.570;2023-05-29T11:06:18;1.85;;;1.50;;
37791;SDS011;29527;55.766;37.570;2023-05-29T11:08:45;2.60;;;1.30;;
37791;SDS011;29527;55.766;37.570;2023-05-29T11:11:13;3.75;;;1.27;;
37791;SDS011;29527;55.766;37.570;2023-05-29T11:13:55;4.15;;;1.20;;
37791;SDS011;29527;55.766;37.570;2023-05-29T11:18:56;3.97;;;1.30;;
37791;SDS011;29527;55.766;37.570;2023-05-29T11:24:00;7.63;;;1.38;;
37791;SDS011;29527;55.766;37.570;2023-05-29T11:26:28;5.78;;;1.40;;
37791;SDS011;29527;55.766;37.570;2023-05-29T11:29:02;1.92;;;1.27;;
37791;SDS011;29527;55.766;37.570;2023-05-29T11:31:31;3.45;;;1.05;;
37791;SDS011;29527;55.766;37.570;2023-05-29T11:34:01;3.78;;;1.35;;
37791;SDS011;29527;55.766;37.570;2023-05-29T11:36:33;5.22;;;1.50;;
37791;SDS011;29527;55.766;37.570;2023-05-29T11:38:59;9.35;;;1.95;;
37791;SDS011;29527;55.766;37.570;2023-05-29T11:41:26;2.67;;;1.17;;
37791;SDS011;29527;55.766;37.570;2023-05-29T11:44:02;3.70;;;1.38;;
37791;SDS011;29527;55.766;37.570;2023-05-29T11:46:30;2.90;;;1.17;;
37791;SDS011;29527;55.766;37.570;2023-05-29T11:48:58;5.32;;;1.60;;
37791;SDS011;29527;55.766;37.570;2023-05-29T11:51:25;2.67;;;1.40;;
37791;SDS011;29527;55.766;37.570;2023-05-29T11:53:51;3.17;;;1.08;;
37791;SDS011;29527;55.766;37.570;2023-05-29T11:56:23;3.55;;;1.15;;
37791;SDS011;29527;55.766;37.570;2023-05-29T11:58:55;4.55;;;1.50;;
37791;SDS011;29527;55.766;37.570;2023-05-29T12:01:24;3.40;;;1.40;;
37791;SDS011;29527;55.766;37.570;2023-05-29T12:03:51;1.92;;;1.50;;
37791;SDS011;29527;55.766;37.570;2023-05-29T12:06:32;4.38;;;1.33;;
37791;SDS011;29527;55.766;37.570;2023-05-29T12:08:59;3.28;;;1.50;;
37791;SDS011;29527;55.766;37.570;2023-05-29T12:11:26;5.25;;;1.60;;
37791;SDS011;29527;55.766;37.570;2023-05-29T12:13:55;3.33;;;1.08;;
37791;SDS011;29527;55.766;37.570;2023-05-29T12:16:21;3.65;;;1.33;;
37791;SDS011;29527;55.766;37.570;2023-05-29T12:18:47;4.15;;;1.38;;
37791;SDS011;29527;55.766;37.570;2023-05-29T12:21:13;2.67;;;1.33;;
37791;SDS011;29527;55.766;37.570;2023-05-29T12:23:38;3.92;;;1.40;;
37791;SDS011;29527;55.766;37.570;2023-05-29T12:26:04;5.00;;;1.10;;
37791;SDS011;29527;55.766;37.570;2023-05-29T12:28:30;4.53;;;1.40;;
37791;SDS011;29527;55.766;37.570;2023-05-29T12:30:59;4.68;;;1.40;;
37791;SDS011;29527;55.766;37.570;2023-05-29T12:33:29;1.95;;;1.30;;
37791;SDS011;29527;55.766;37.570;2023-05-29T12:36:05;4.45;;;1.45;;
37791;SDS011;29527;55.766;37.570;2023-05-29T12:38:41;7.68;;;1.60;;
37791;SDS011;29527;55.766;37.570;2023-05-29T12:44:05;2.75;;;0.98;;
37791;SDS011;29527;55.766;37.570;2023-05-29T12:46:39;6.75;;;1.27;;
37791;SDS011;29527;55.766;37.570;2023-05-29T12:49:12;2.97;;;1.13;;
37791;SDS011;29527;55.766;37.570;2023-05-29T12:51:42;3.90;;;1.30;;
37791;SDS011;29527;55.766;37.570;2023-05-29T12:54:13;5.80;;;1.90;;
37791;SDS011;29527;55.766;37.570;2023-05-29T12:56:39;4.93;;;1.20;;
37791;SDS011;29527;55.766;37.570;2023-05-29T12:59:06;4.13;;;1.10;;
37791;SDS011;29527;55.766;37.570;2023-05-29T13:01:33;12.13;;;1.58;;
37791;SDS011;29527;55.766;37.570;2023-05-29T13:03:59;4.63;;;1.20;;
37791;SDS011;29527;55.766;37.570;2023-05-29T13:06:24;2.92;;;1.23;;
37791;SDS011;29527;55.766;37.570;2023-05-29T13:08:50;3.90;;;1.38;;
37791;SDS011;29527;55.766;37.570;2023-05-29T13:11:15;3.55;;;1.80;;
37791;SDS011;29527;55.766;37.570;2023-05-29T13:13:41;2.80;;;1.60;;
37791;SDS011;29527;55.766;37.570;2023-05-29T13:16:07;4.22;;;1.75;;
37791;SDS011;29527;55.766;37.570;2023-05-29T13:18:32;4.20;;;1.40;;
37791;SDS011;29527;55.766;37.570;2023-05-29T13:20:59;2.42;;;1.20;;
37791;SDS011;29527;55.766;37.570;2023-05-29T13:23:25;2.38;;;1.30;;
37791;SDS011;29527;55.766;37.570;2023-05-29T13:25:50;3.17;;;1.38;;
37791;SDS011;29527;55.766;37.570;2023-05-29T13:28:16;5.38;;;1.30;;
37791;SDS011;29527;55.766;37.570;2023-05-29T13:30:41;3.17;;;1.42;;
37791;SDS011;29527;55.766;37.570;2023-05-29T13:33:07;5.75;;;1.65;;
37791;SDS011;29527;55.766;37.570;2023-05-29T13:35:33;1.92;;;1.40;;
37791;SDS011;29527;55.766;37.570;2023-05-29T13:37:58;1.98;;;1.45;;
37791;SDS011;29527;55.766;37.570;2023-05-29T13:40:23;4.32;;;1.45;;
37791;SDS011;29527;55.766;37.570;2023-05-29T13:42:50;3.30;;;0.98;;
37791;SDS011;29527;55.766;37.570;2023-05-29T13:45:15;4.47;;;1.70;;
37791;SDS011;29527;55.766;37.570;2023-05-29T13:47:41;5.57;;;1.58;;
37791;SDS011;29527;55.766;37.570;2023-05-29T13:50:06;2.30;;;1.38;;
37791;SDS011;29527;55.766;37.570;2023-05-29T13:52:33;4.70;;;1.77;;
37791;SDS011;29527;55.766;37.570;2023-05-29T13:54:59;3.88;;;1.55;;
37791;SDS011;29527;55.766;37.570;2023-05-29T13:57:30;2.75;;;1.25;;
37791;SDS011;29527;55.766;37.570;2023-05-29T13:59:56;3.28;;;1.45;;
37791;SDS011;29527;55.766;37.570;2023-05-29T14:02:21;6.13;;;1.40;;
37791;SDS011;29527;55.766;37.570;2023-05-29T14:04:48;3.15;;;1.30;;
37791;SDS011;29527;55.766;37.570;2023-05-29T14:07:13;3.90;;;1.90;;
37791;SDS011;29527;55.766;37.570;2023-05-29T14:09:39;5.13;;;1.40;;
37791;SDS011;29527;55.766;37.570;2023-05-29T14:12:04;2.78;;;1.38;;
37791;SDS011;29527;55.766;37.570;2023-05-29T14:14:32;4.13;;;1.50;;
37791;SDS011;29527;55.766;37.570;2023-05-29T14:16:58;4.55;;;1.55;;
37791;SDS011;29527;55.766;37.570;2023-05-29T14:19:24;7.22;;;1.80;;
37791;SDS011;29527;55.766;37.570;2023-05-29T14:21:50;4.07;;;1.60;;
37791;SDS011;29527;55.766;37.570;2023-05-29T14:24:16;6.85;;;1.60;;
37791;SDS011;29527;55.766;37.570;2023-05-29T14:26:44;4.60;;;1.33;;
37791;SDS011;29527;55.766;37.570;2023-05-29T14:29:12;4.95;;;2.30;;
37791;SDS011;29527;55.766;37.570;2023-05-29T14:31:42;4.45;;;1.77;;
37791;SDS011;29527;55.766;37.570;2023-05-29T14:34:08;2.55;;;1.77;;
37791;SDS011;29527;55.766;37.570;2023-05-29T14:36:34;4.43;;;1.40;;
37791;SDS011;29527;55.766;37.570;2023-05-29T14:39:01;6.13;;;1.75;;
37791;SDS011;29527;55.766;37.570;2023-05-29T14:41:27;3.80;;;1.88;;
37791;SDS011;29527;55.766;37.570;2023-05-29T14:43:52;4.00;;;2.00;;
37791;SDS011;29527;55.766;37.570;2023-05-29T14:46:18;7.63;;;1.70;;
37791;SDS011;29527;55.766;37.570;2023-05-29T14:48:44;2.88;;;1.30;;
37791;SDS011;29527;55.766;37.570;2023-05-29T14:51:12;4.60;;;1.52;;
37791;SDS011;29527;55.766;37.570;2023-05-29T14:53:37;2.63;;;1.60;;
37791;SDS011;29527;55.766;37.570;2023-05-29T14:56:03;3.85;;;1.40;;
37791;SDS011;29527;55.766;37.570;2023-05-29T14:58:28;2.90;;;1.50;;
37791;SDS011;29527;55.766;37.570;2023-05-29T15:00:54;4.53;;;1.40;;
37791;SDS011;29527;55.766;37.570;2023-05-29T15:03:20;3.63;;;1.70;;
37791;SDS011;29527;55.766;37.570;2023-05-29T15:05:45;9.68;;;1.77;;